sensor_id;sensor_type;location;lat;lon;timestamp;P1;durP1;ratioP1;P2;durP2;ratioP2
36355;SDS011;22384;54.302;18.596;2023-04-01T00:01:42;64.63;;;6.13;;
36355;SDS011;22384;54.302;18.596;2023-04-01T00:04:08;80.65;;;6.63;;
36355;SDS011;22384;54.302;18.596;2023-04-01T00:06:34;40.45;;;5.82;;
36355;SDS011;22384;54.302;18.596;2023-04-01T00:09:01;24.00;;;4.68;;
36355;SDS011;22384;54.302;18.596;2023-04-01T00:11:27;12.02;;;4.15;;
36355;SDS011;22384;54.302;18.596;2023-04-01T00:13:53;14.65;;;6.68;;
36355;SDS011;22384;54.302;18.596;2023-04-01T00:16:20;18.42;;;4.60;;
36355;SDS011;22384;54.302;18.596;2023-04-01T00:18:46;27.52;;;5.63;;
36355;SDS011;22384;54.302;18.596;2023-04-01T00:21:12;21.75;;;5.05;;
36355;SDS011;22384;54.302;18.596;2023-04-01T00:23:38;18.75;;;4.93;;
36355;SDS011;22384;54.302;18.596;2023-04-01T00:26:04;29.98;;;5.72;;
36355;SDS011;22384;54.302;18.596;2023-04-01T00:28:30;50.00;;;6.00;;
36355;SDS011;22384;54.302;18.596;2023-04-01T00:30:56;39.35;;;5.97;;
36355;SDS011;22384;54.302;18.596;2023-04-01T00:33:22;62.05;;;5.93;;
36355;SDS011;22384;54.302;18.596;2023-04-01T00:35:48;37.33;;;5.32;;
36355;SDS011;22384;54.302;18.596;2023-04-01T00:38:15;41.50;;;3.58;;
36355;SDS011;22384;54.302;18.596;2023-04-01T00:40:43;45.83;;;3.60;;
36355;SDS011;22384;54.302;18.596;2023-04-01T00:43:16;82.18;;;4.35;;
36355;SDS011;22384;54.302;18.596;2023-04-01T00:45:47;53.70;;;3.78;;
36355;SDS011;22384;54.302;18.596;2023-04-01T00:48:17;28.98;;;2.95;;
36355;SDS011;22384;54.302;18.596;2023-04-01T00:50:47;48.72;;;3.50;;
36355;SDS011;22384;54.302;18.596;2023-04-01T00:53:16;39.70;;;3.90;;
36355;SDS011;22384;54.302;18.596;2023-04-01T00:55:43;36.97;;;3.63;;
36355;SDS011;22384;54.302;18.596;2023-04-01T00:58:13;18.55;;;3.95;;
36355;SDS011;22384;54.302;18.596;2023-04-01T01:00:40;33.67;;;3.92;;
36355;SDS011;22384;54.302;18.596;2023-04-01T01:03:07;51.40;;;4.63;;
36355;SDS011;22384;54.302;18.596;2023-04-01T01:05:55;41.70;;;4.85;;
36355;SDS011;22384;54.302;18.596;2023-04-01T01:08:30;35.00;;;4.57;;
36355;SDS011;22384;54.302;18.596;2023-04-01T01:11:01;35.70;;;5.25;;
36355;SDS011;22384;54.302;18.596;2023-04-01T01:18:49;34.63;;;5.47;;
36355;SDS011;22384;54.302;18.596;2023-04-01T01:37:13;24.75;;;8.07;;
36355;SDS011;22384;54.302;18.596;2023-04-01T01:39:40;13.77;;;8.23;;
36355;SDS011;22384;54.302;18.596;2023-04-01T01:42:08;16.85;;;8.27;;
36355;SDS011;22384;54.302;18.596;2023-04-01T01:44:35;16.17;;;7.97;;
36355;SDS011;22384;54.302;18.596;2023-04-01T01:47:02;15.88;;;8.45;;
36355;SDS011;22384;54.302;18.596;2023-04-01T01:49:29;11.18;;;8.15;;
36355;SDS011;22384;54.302;18.596;2023-04-01T01:51:57;12.98;;;7.80;;
36355;SDS011;22384;54.302;18.596;2023-04-01T01:54:23;12.60;;;8.65;;
36355;SDS011;22384;54.302;18.596;2023-04-01T01:56:50;10.75;;;7.70;;
36355;SDS011;22384;54.302;18.596;2023-04-01T01:59:17;9.52;;;7.38;;
36355;SDS011;22384;54.302;18.596;2023-04-01T02:01:46;13.05;;;7.10;;
36355;SDS011;22384;54.302;18.596;2023-04-01T02:04:14;10.18;;;6.55;;
36355;SDS011;22384;54.302;18.596;2023-04-01T02:06:44;11.23;;;7.32;;
36355;SDS011;22384;54.302;18.596;2023-04-01T02:09:11;12.55;;;6.43;;
36355;SDS011;22384;54.302;18.596;2023-04-01T02:11:51;15.43;;;6.53;;
36355;SDS011;22384;54.302;18.596;2023-04-01T02:14:24;8.15;;;5.85;;
36355;SDS011;22384;54.302;18.596;2023-04-01T02:16:53;9.93;;;6.93;;
36355;SDS011;22384;54.302;18.596;2023-04-01T02:19:25;10.27;;;6.47;;
36355;SDS011;22384;54.302;18.596;2023-04-01T02:21:53;9.10;;;6.80;;
36355;SDS011;22384;54.302;18.596;2023-04-01T02:24:20;12.75;;;7.18;;
36355;SDS011;22384;54.302;18.596;2023-04-01T02:26:50;11.07;;;6.22;;
36355;SDS011;22384;54.302;18.596;2023-04-01T02:29:17;10.57;;;6.75;;
36355;SDS011;22384;54.302;18.596;2023-04-01T02:31:43;8.43;;;6.63;;
36355;SDS011;22384;54.302;18.596;2023-04-01T02:34:10;12.02;;;6.63;;
36355;SDS011;22384;54.302;18.596;2023-04-01T02:36:36;11.15;;;6.80;;
36355;SDS011;22384;54.302;18.596;2023-04-01T02:39:02;8.60;;;5.45;;
36355;SDS011;22384;54.302;18.596;2023-04-01T02:41:29;7.88;;;4.97;;
36355;SDS011;22384;54.302;18.596;2023-04-01T02:43:55;7.50;;;4.85;;
36355;SDS011;22384;54.302;18.596;2023-04-01T02:46:23;6.50;;;5.07;;
36355;SDS011;22384;54.302;18.596;2023-04-01T02:48:49;8.70;;;5.30;;
36355;SDS011;22384;54.302;18.596;2023-04-01T02:51:15;8.48;;;5.05;;
36355;SDS011;22384;54.302;18.596;2023-04-01T02:53:41;10.63;;;6.13;;
36355;SDS011;22384;54.302;18.596;2023-04-01T02:56:07;6.60;;;5.10;;
36355;SDS011;22384;54.302;18.596;2023-04-01T02:58:33;10.10;;;5.25;;
36355;SDS011;22384;54.302;18.596;2023-04-01T03:01:00;8.55;;;4.32;;
36355;SDS011;22384;54.302;18.596;2023-04-01T03:03:26;7.78;;;4.50;;
36355;SDS011;22384;54.302;18.596;2023-04-01T03:05:52;9.40;;;5.15;;
36355;SDS011;22384;54.302;18.596;2023-04-01T03:08:21;5.95;;;4.82;;
36355;SDS011;22384;54.302;18.596;2023-04-01T03:10:47;12.25;;;5.97;;
36355;SDS011;22384;54.302;18.596;2023-04-01T03:13:13;17.27;;;6.22;;
36355;SDS011;22384;54.302;18.596;2023-04-01T03:15:39;18.63;;;7.53;;
36355;SDS011;22384;54.302;18.596;2023-04-01T03:18:05;12.38;;;6.47;;
36355;SDS011;22384;54.302;18.596;2023-04-01T03:20:31;8.85;;;6.15;;
36355;SDS011;22384;54.302;18.596;2023-04-01T03:22:57;13.88;;;5.55;;
36355;SDS011;22384;54.302;18.596;2023-04-01T03:25:23;16.17;;;6.70;;
36355;SDS011;22384;54.302;18.596;2023-04-01T03:27:49;14.23;;;6.50;;
36355;SDS011;22384;54.302;18.596;2023-04-01T03:30:15;14.50;;;5.70;;
36355;SDS011;22384;54.302;18.596;2023-04-01T03:32:41;11.82;;;6.13;;
36355;SDS011;22384;54.302;18.596;2023-04-01T03:35:07;10.70;;;5.20;;
36355;SDS011;22384;54.302;18.596;2023-04-01T03:37:35;6.38;;;4.65;;
36355;SDS011;22384;54.302;18.596;2023-04-01T03:40:01;6.75;;;4.85;;
36355;SDS011;22384;54.302;18.596;2023-04-01T03:42:27;12.55;;;5.47;;
36355;SDS011;22384;54.302;18.596;2023-04-01T03:44:53;9.63;;;5.40;;
36355;SDS011;22384;54.302;18.596;2023-04-01T03:47:19;6.88;;;4.88;;
36355;SDS011;22384;54.302;18.596;2023-04-01T03:49:46;6.07;;;4.97;;
36355;SDS011;22384;54.302;18.596;2023-04-01T03:52:12;7.30;;;4.85;;
36355;SDS011;22384;54.302;18.596;2023-04-01T03:54:38;6.82;;;4.18;;
36355;SDS011;22384;54.302;18.596;2023-04-01T03:57:05;9.60;;;4.82;;
36355;SDS011;22384;54.302;18.596;2023-04-01T03:59:31;7.30;;;4.93;;
36355;SDS011;22384;54.302;18.596;2023-04-01T04:01:58;10.98;;;5.78;;
36355;SDS011;22384;54.302;18.596;2023-04-01T04:04:25;12.43;;;5.57;;
36355;SDS011;22384;54.302;18.596;2023-04-01T04:06:51;9.35;;;5.00;;
36355;SDS011;22384;54.302;18.596;2023-04-01T04:09:17;8.05;;;5.45;;
36355;SDS011;22384;54.302;18.596;2023-04-01T04:11:43;8.73;;;6.05;;
36355;SDS011;22384;54.302;18.596;2023-04-01T04:14:09;6.70;;;4.72;;
36355;SDS011;22384;54.302;18.596;2023-04-01T04:16:36;8.38;;;5.00;;
36355;SDS011;22384;54.302;18.596;2023-04-01T04:19:03;12.98;;;5.22;;
36355;SDS011;22384;54.302;18.596;2023-04-01T04:21:29;10.43;;;7.15;;
36355;SDS011;22384;54.302;18.596;2023-04-01T04:23:55;10.63;;;5.70;;
36355;SDS011;22384;54.302;18.596;2023-04-01T04:26:22;9.65;;;5.82;;
36355;SDS011;22384;54.302;18.596;2023-04-01T04:28:49;13.63;;;6.30;;
36355;SDS011;22384;54.302;18.596;2023-04-01T04:31:20;11.30;;;6.95;;
36355;SDS011;22384;54.302;18.596;2023-04-01T04:33:46;11.27;;;6.82;;
36355;SDS011;22384;54.302;18.596;2023-04-01T04:36:13;18.10;;;7.35;;
36355;SDS011;22384;54.302;18.596;2023-04-01T04:38:39;14.70;;;7.40;;
36355;SDS011;22384;54.302;18.596;2023-04-01T04:41:12;17.90;;;7.57;;
36355;SDS011;22384;54.302;18.596;2023-04-01T04:43:39;10.20;;;6.82;;
36355;SDS011;22384;54.302;18.596;2023-04-01T04:46:09;7.75;;;5.47;;
36355;SDS011;22384;54.302;18.596;2023-04-01T04:48:35;10.55;;;6.65;;
36355;SDS011;22384;54.302;18.596;2023-04-01T04:51:02;9.32;;;6.20;;
36355;SDS011;22384;54.302;18.596;2023-04-01T04:53:28;9.50;;;5.88;;
36355;SDS011;22384;54.302;18.596;2023-04-01T04:55:54;12.45;;;6.47;;
36355;SDS011;22384;54.302;18.596;2023-04-01T04:58:21;10.52;;;6.68;;
36355;SDS011;22384;54.302;18.596;2023-04-01T05:00:47;12.27;;;6.30;;
36355;SDS011;22384;54.302;18.596;2023-04-01T05:03:13;11.32;;;6.70;;
36355;SDS011;22384;54.302;18.596;2023-04-01T05:05:39;20.75;;;5.88;;
36355;SDS011;22384;54.302;18.596;2023-04-01T05:08:06;13.18;;;6.47;;
36355;SDS011;22384;54.302;18.596;2023-04-01T05:10:32;13.13;;;5.82;;
36355;SDS011;22384;54.302;18.596;2023-04-01T05:12:59;14.75;;;5.75;;
36355;SDS011;22384;54.302;18.596;2023-04-01T05:15:26;20.95;;;5.70;;
36355;SDS011;22384;54.302;18.596;2023-04-01T05:17:52;24.73;;;5.97;;
36355;SDS011;22384;54.302;18.596;2023-04-01T05:20:18;29.45;;;5.55;;
36355;SDS011;22384;54.302;18.596;2023-04-01T05:22:44;26.33;;;5.18;;
36355;SDS011;22384;54.302;18.596;2023-04-01T05:25:10;67.00;;;6.22;;
36355;SDS011;22384;54.302;18.596;2023-04-01T05:27:36;66.63;;;5.30;;
36355;SDS011;22384;54.302;18.596;2023-04-01T05:30:03;87.85;;;6.35;;
36355;SDS011;22384;54.302;18.596;2023-04-01T05:32:30;27.38;;;5.05;;
36355;SDS011;22384;54.302;18.596;2023-04-01T05:34:56;65.47;;;5.35;;
36355;SDS011;22384;54.302;18.596;2023-04-01T05:37:22;81.28;;;5.68;;
36355;SDS011;22384;54.302;18.596;2023-04-01T05:39:49;68.13;;;5.13;;
36355;SDS011;22384;54.302;18.596;2023-04-01T05:42:16;63.92;;;5.18;;
36355;SDS011;22384;54.302;18.596;2023-04-01T05:44:42;72.90;;;4.75;;
36355;SDS011;22384;54.302;18.596;2023-04-01T05:47:08;70.60;;;4.78;;
36355;SDS011;22384;54.302;18.596;2023-04-01T05:49:34;94.53;;;5.65;;
36355;SDS011;22384;54.302;18.596;2023-04-01T05:52:01;84.38;;;4.40;;
36355;SDS011;22384;54.302;18.596;2023-04-01T05:54:27;71.93;;;4.93;;
36355;SDS011;22384;54.302;18.596;2023-04-01T05:56:53;133.23;;;5.20;;
36355;SDS011;22384;54.302;18.596;2023-04-01T05:59:20;130.45;;;5.30;;
36355;SDS011;22384;54.302;18.596;2023-04-01T06:01:46;105.97;;;4.97;;
36355;SDS011;22384;54.302;18.596;2023-04-01T06:04:15;114.35;;;4.43;;
36355;SDS011;22384;54.302;18.596;2023-04-01T06:06:42;87.70;;;3.55;;
36355;SDS011;22384;54.302;18.596;2023-04-01T06:09:15;122.60;;;5.22;;
36355;SDS011;22384;54.302;18.596;2023-04-01T06:19:21;61.67;;;3.63;;
36355;SDS011;22384;54.302;18.596;2023-04-01T06:34:47;36.38;;;3.47;;
36355;SDS011;22384;54.302;18.596;2023-04-01T06:49:48;118.78;;;50.42;;
36355;SDS011;22384;54.302;18.596;2023-04-01T06:52:22;15.75;;;5.05;;
36355;SDS011;22384;54.302;18.596;2023-04-01T06:54:53;12.13;;;2.78;;
36355;SDS011;22384;54.302;18.596;2023-04-01T06:57:28;8.60;;;2.38;;
36355;SDS011;22384;54.302;18.596;2023-04-01T06:59:55;11.55;;;4.50;;
36355;SDS011;22384;54.302;18.596;2023-04-01T07:02:34;2.78;;;2.10;;
36355;SDS011;22384;54.302;18.596;2023-04-01T07:05:02;2.05;;;1.73;;
36355;SDS011;22384;54.302;18.596;2023-04-01T07:07:35;2.55;;;1.65;;
36355;SDS011;22384;54.302;18.596;2023-04-01T07:10:05;2.83;;;2.00;;
36355;SDS011;22384;54.302;18.596;2023-04-01T07:12:37;3.38;;;1.73;;
36355;SDS011;22384;54.302;18.596;2023-04-01T07:15:20;2.47;;;1.40;;
36355;SDS011;22384;54.302;18.596;2023-04-01T07:17:47;1.75;;;1.40;;
36355;SDS011;22384;54.302;18.596;2023-04-01T07:20:26;2.38;;;1.60;;
36355;SDS011;22384;54.302;18.596;2023-04-01T07:22:56;3.50;;;2.10;;
36355;SDS011;22384;54.302;18.596;2023-04-01T07:25:25;2.33;;;1.48;;
36355;SDS011;22384;54.302;18.596;2023-04-01T07:28:12;5.45;;;1.50;;
36355;SDS011;22384;54.302;18.596;2023-04-01T07:33:09;2.95;;;2.20;;
36355;SDS011;22384;54.302;18.596;2023-04-01T07:35:52;2.78;;;1.83;;
36355;SDS011;22384;54.302;18.596;2023-04-01T07:38:35;2.88;;;1.40;;
36355;SDS011;22384;54.302;18.596;2023-04-01T07:43:44;1.45;;;1.20;;
36355;SDS011;22384;54.302;18.596;2023-04-01T07:51:27;4.13;;;1.95;;
36355;SDS011;22384;54.302;18.596;2023-04-01T07:54:09;2.35;;;1.35;;
36355;SDS011;22384;54.302;18.596;2023-04-01T07:56:43;3.88;;;2.10;;
36355;SDS011;22384;54.302;18.596;2023-04-01T07:59:18;1.55;;;1.20;;
36355;SDS011;22384;54.302;18.596;2023-04-01T08:04:49;2.60;;;1.10;;
36355;SDS011;22384;54.302;18.596;2023-04-01T08:07:18;2.80;;;1.88;;
36355;SDS011;22384;54.302;18.596;2023-04-01T08:12:29;3.05;;;2.15;;
36355;SDS011;22384;54.302;18.596;2023-04-01T08:20:00;3.38;;;1.98;;
36355;SDS011;22384;54.302;18.596;2023-04-01T08:22:31;3.75;;;1.65;;
36355;SDS011;22384;54.302;18.596;2023-04-01T08:24:59;1.50;;;1.40;;
36355;SDS011;22384;54.302;18.596;2023-04-01T08:32:59;1.98;;;1.40;;
36355;SDS011;22384;54.302;18.596;2023-04-01T08:35:31;3.97;;;1.73;;
36355;SDS011;22384;54.302;18.596;2023-04-01T08:38:00;2.50;;;1.75;;
36355;SDS011;22384;54.302;18.596;2023-04-01T08:40:32;2.88;;;1.42;;
36355;SDS011;22384;54.302;18.596;2023-04-01T08:50:45;3.38;;;2.08;;
36355;SDS011;22384;54.302;18.596;2023-04-01T09:22:32;2.88;;;1.60;;
36355;SDS011;22384;54.302;18.596;2023-04-01T09:27:37;5.13;;;3.30;;
36355;SDS011;22384;54.302;18.596;2023-04-01T09:37:53;4.18;;;2.00;;
36355;SDS011;22384;54.302;18.596;2023-04-01T09:40:34;1.17;;;1.08;;
36355;SDS011;22384;54.302;18.596;2023-04-01T09:43:14;5.07;;;1.98;;
36355;SDS011;22384;54.302;18.596;2023-04-01T09:45:57;6.15;;;1.55;;
36355;SDS011;22384;54.302;18.596;2023-04-01T09:58:53;2.83;;;1.33;;
36355;SDS011;22384;54.302;18.596;2023-04-01T10:01:51;2.92;;;0.90;;
36355;SDS011;22384;54.302;18.596;2023-04-01T10:04:17;7.63;;;3.80;;
36355;SDS011;22384;54.302;18.596;2023-04-01T10:14:47;2.85;;;2.15;;
36355;SDS011;22384;54.302;18.596;2023-04-01T10:22:54;4.25;;;1.40;;
36355;SDS011;22384;54.302;18.596;2023-04-01T10:39:08;2.95;;;1.23;;
36355;SDS011;22384;54.302;18.596;2023-04-01T10:44:32;4.47;;;1.25;;
36355;SDS011;22384;54.302;18.596;2023-04-01T10:49:34;5.55;;;1.98;;
36355;SDS011;22384;54.302;18.596;2023-04-01T10:54:48;3.90;;;1.50;;
36355;SDS011;22384;54.302;18.596;2023-04-01T11:24:12;4.90;;;1.85;;
36355;SDS011;22384;54.302;18.596;2023-04-01T11:36:33;4.10;;;1.10;;
36355;SDS011;22384;54.302;18.596;2023-04-01T11:44:20;3.38;;;1.70;;
36355;SDS011;22384;54.302;18.596;2023-04-01T11:52:32;1.75;;;0.93;;
36355;SDS011;22384;54.302;18.596;2023-04-01T11:55:03;3.38;;;1.05;;
36355;SDS011;22384;54.302;18.596;2023-04-01T12:11:19;3.78;;;1.15;;
36355;SDS011;22384;54.302;18.596;2023-04-01T12:16:29;1.55;;;1.23;;
36355;SDS011;22384;54.302;18.596;2023-04-01T12:19:04;2.78;;;1.05;;
36355;SDS011;22384;54.302;18.596;2023-04-01T12:37:03;3.85;;;1.52;;
36355;SDS011;22384;54.302;18.596;2023-04-01T12:39:37;4.10;;;2.40;;
36355;SDS011;22384;54.302;18.596;2023-04-01T12:44:58;3.80;;;1.50;;
36355;SDS011;22384;54.302;18.596;2023-04-01T13:00:44;1.70;;;0.90;;
36355;SDS011;22384;54.302;18.596;2023-04-01T13:08:49;2.35;;;1.33;;
36355;SDS011;22384;54.302;18.596;2023-04-01T13:11:33;3.50;;;1.25;;
36355;SDS011;22384;54.302;18.596;2023-04-01T13:16:38;1.73;;;1.20;;
36355;SDS011;22384;54.302;18.596;2023-04-01T13:24:06;2.33;;;1.50;;
36355;SDS011;22384;54.302;18.596;2023-04-01T13:29:15;1.95;;;1.27;;
36355;SDS011;22384;54.302;18.596;2023-04-01T13:46:54;3.38;;;1.27;;
36355;SDS011;22384;54.302;18.596;2023-04-01T13:49:42;4.65;;;3.35;;
36355;SDS011;22384;54.302;18.596;2023-04-01T14:03:01;4.25;;;1.52;;
36355;SDS011;22384;54.302;18.596;2023-04-01T14:13:02;1.50;;;1.40;;
36355;SDS011;22384;54.302;18.596;2023-04-01T14:34:21;3.10;;;1.90;;
36355;SDS011;22384;54.302;18.596;2023-04-01T14:42:33;1.83;;;1.42;;
36355;SDS011;22384;54.302;18.596;2023-04-01T14:45:20;3.65;;;1.70;;
36355;SDS011;22384;54.302;18.596;2023-04-01T14:58:08;3.92;;;1.80;;
36355;SDS011;22384;54.302;18.596;2023-04-01T15:03:45;5.38;;;2.67;;
36355;SDS011;22384;54.302;18.596;2023-04-01T15:08:44;3.67;;;2.30;;
36355;SDS011;22384;54.302;18.596;2023-04-01T15:11:21;3.85;;;2.60;;
36355;SDS011;22384;54.302;18.596;2023-04-01T15:16:21;6.95;;;3.85;;
36355;SDS011;22384;54.302;18.596;2023-04-01T15:19:00;9.32;;;4.80;;
36355;SDS011;22384;54.302;18.596;2023-04-01T15:29:50;7.22;;;3.10;;
36355;SDS011;22384;54.302;18.596;2023-04-01T15:32:27;24.02;;;9.52;;
36355;SDS011;22384;54.302;18.596;2023-04-01T15:34:57;25.25;;;10.82;;
36355;SDS011;22384;54.302;18.596;2023-04-01T15:49:56;17.05;;;6.80;;
36355;SDS011;22384;54.302;18.596;2023-04-01T15:52:24;29.60;;;10.90;;
36355;SDS011;22384;54.302;18.596;2023-04-01T15:55:24;12.35;;;5.35;;
36355;SDS011;22384;54.302;18.596;2023-04-01T16:00:31;7.85;;;4.57;;
36355;SDS011;22384;54.302;18.596;2023-04-01T16:15:46;12.00;;;5.70;;
36355;SDS011;22384;54.302;18.596;2023-04-01T16:23:36;7.30;;;3.83;;
36355;SDS011;22384;54.302;18.596;2023-04-01T16:28:31;10.90;;;5.07;;
36355;SDS011;22384;54.302;18.596;2023-04-01T16:41:39;6.25;;;3.45;;
36355;SDS011;22384;54.302;18.596;2023-04-01T16:44:18;8.90;;;4.28;;
36355;SDS011;22384;54.302;18.596;2023-04-01T16:46:46;10.73;;;4.85;;
36355;SDS011;22384;54.302;18.596;2023-04-01T16:49:23;7.50;;;4.20;;
36355;SDS011;22384;54.302;18.596;2023-04-01T17:02:47;9.60;;;4.47;;
36355;SDS011;22384;54.302;18.596;2023-04-01T17:05:13;6.90;;;4.43;;
36355;SDS011;22384;54.302;18.596;2023-04-01T17:13:06;11.70;;;4.13;;
36355;SDS011;22384;54.302;18.596;2023-04-01T17:21:13;10.63;;;5.35;;
36355;SDS011;22384;54.302;18.596;2023-04-01T17:23:37;10.82;;;5.20;;
36355;SDS011;22384;54.302;18.596;2023-04-01T17:26:13;7.82;;;4.53;;
36355;SDS011;22384;54.302;18.596;2023-04-01T17:37:16;7.35;;;3.70;;
36355;SDS011;22384;54.302;18.596;2023-04-01T17:42:16;9.00;;;4.13;;
36355;SDS011;22384;54.302;18.596;2023-04-01T17:44:55;9.43;;;4.10;;
36355;SDS011;22384;54.302;18.596;2023-04-01T18:21:40;7.97;;;4.05;;
36355;SDS011;22384;54.302;18.596;2023-04-01T18:26:38;9.00;;;4.07;;
36355;SDS011;22384;54.302;18.596;2023-04-01T18:50:43;9.65;;;3.83;;
36355;SDS011;22384;54.302;18.596;2023-04-01T18:55:43;6.10;;;3.17;;
36355;SDS011;22384;54.302;18.596;2023-04-01T19:00:39;9.90;;;4.07;;
36355;SDS011;22384;54.302;18.596;2023-04-01T19:03:18;7.65;;;3.58;;
36355;SDS011;22384;54.302;18.596;2023-04-01T19:05:47;6.38;;;3.20;;
36355;SDS011;22384;54.302;18.596;2023-04-01T19:08:18;5.60;;;3.05;;
36355;SDS011;22384;54.302;18.596;2023-04-01T19:15:49;8.18;;;3.45;;
36355;SDS011;22384;54.302;18.596;2023-04-01T19:20:50;9.10;;;3.47;;
36355;SDS011;22384;54.302;18.596;2023-04-01T19:25:58;7.93;;;3.35;;
36355;SDS011;22384;54.302;18.596;2023-04-01T19:28:49;6.95;;;2.97;;
36355;SDS011;22384;54.302;18.596;2023-04-01T19:31:44;5.75;;;3.45;;
36355;SDS011;22384;54.302;18.596;2023-04-01T19:36:40;11.07;;;5.55;;
36355;SDS011;22384;54.302;18.596;2023-04-01T19:50:00;13.80;;;5.90;;
36355;SDS011;22384;54.302;18.596;2023-04-01T19:52:36;10.32;;;4.97;;
36355;SDS011;22384;54.302;18.596;2023-04-01T19:57:43;9.48;;;4.82;;
36355;SDS011;22384;54.302;18.596;2023-04-01T20:08:11;8.95;;;4.90;;
36355;SDS011;22384;54.302;18.596;2023-04-01T20:10:42;8.13;;;4.85;;
36355;SDS011;22384;54.302;18.596;2023-04-01T20:15:47;9.52;;;4.00;;
36355;SDS011;22384;54.302;18.596;2023-04-01T20:18:33;8.70;;;3.25;;
36355;SDS011;22384;54.302;18.596;2023-04-01T20:23:52;7.07;;;3.13;;
36355;SDS011;22384;54.302;18.596;2023-04-01T20:26:25;9.80;;;4.32;;
36355;SDS011;22384;54.302;18.596;2023-04-01T20:29:04;7.40;;;3.20;;
36355;SDS011;22384;54.302;18.596;2023-04-01T20:31:41;10.27;;;4.10;;
36355;SDS011;22384;54.302;18.596;2023-04-01T20:47:41;7.47;;;3.95;;
36355;SDS011;22384;54.302;18.596;2023-04-01T20:52:42;9.40;;;3.60;;
36355;SDS011;22384;54.302;18.596;2023-04-01T20:57:56;12.13;;;4.75;;
36355;SDS011;22384;54.302;18.596;2023-04-01T21:14:07;9.65;;;4.90;;
36355;SDS011;22384;54.302;18.596;2023-04-01T21:16:39;5.72;;;3.05;;
36355;SDS011;22384;54.302;18.596;2023-04-01T21:30:01;9.35;;;2.85;;
36355;SDS011;22384;54.302;18.596;2023-04-01T21:38:13;9.30;;;2.97;;
36355;SDS011;22384;54.302;18.596;2023-04-01T21:41:01;6.50;;;3.05;;
36355;SDS011;22384;54.302;18.596;2023-04-01T21:48:31;4.53;;;2.78;;
36355;SDS011;22384;54.302;18.596;2023-04-01T21:53:42;5.32;;;2.75;;
36355;SDS011;22384;54.302;18.596;2023-04-01T21:56:23;7.80;;;2.78;;
36355;SDS011;22384;54.302;18.596;2023-04-01T22:04:04;4.07;;;2.50;;
36355;SDS011;22384;54.302;18.596;2023-04-01T22:09:21;5.60;;;2.60;;
36355;SDS011;22384;54.302;18.596;2023-04-01T22:11:57;4.60;;;2.53;;
36355;SDS011;22384;54.302;18.596;2023-04-01T22:20:11;3.42;;;2.17;;
36355;SDS011;22384;54.302;18.596;2023-04-01T22:25:25;8.45;;;3.67;;
36355;SDS011;22384;54.302;18.596;2023-04-01T22:32:48;7.65;;;2.67;;
36355;SDS011;22384;54.302;18.596;2023-04-01T22:43:16;7.47;;;2.42;;
36355;SDS011;22384;54.302;18.596;2023-04-01T22:48:36;4.78;;;2.50;;
36355;SDS011;22384;54.302;18.596;2023-04-01T22:56:21;3.80;;;2.20;;
36355;SDS011;22384;54.302;18.596;2023-04-01T23:01:36;8.25;;;2.20;;
36355;SDS011;22384;54.302;18.596;2023-04-01T23:04:04;6.45;;;2.50;;
36355;SDS011;22384;54.302;18.596;2023-04-01T23:06:41;4.75;;;2.40;;
36355;SDS011;22384;54.302;18.596;2023-04-01T23:09:11;5.70;;;2.58;;
36355;SDS011;22384;54.302;18.596;2023-04-01T23:16:39;4.18;;;2.70;;
36355;SDS011;22384;54.302;18.596;2023-04-01T23:19:24;6.93;;;2.83;;
36355;SDS011;22384;54.302;18.596;2023-04-01T23:21:52;7.45;;;2.55;;
36355;SDS011;22384;54.302;18.596;2023-04-01T23:27:14;4.72;;;2.42;;
36355;SDS011;22384;54.302;18.596;2023-04-01T23:29:38;6.82;;;2.90;;
36355;SDS011;22384;54.302;18.596;2023-04-01T23:32:18;3.70;;;2.38;;
36355;SDS011;22384;54.302;18.596;2023-04-01T23:34:49;5.57;;;2.38;;
36355;SDS011;22384;54.302;18.596;2023-04-01T23:37:16;4.35;;;2.25;;
36355;SDS011;22384;54.302;18.596;2023-04-01T23:39:50;3.10;;;1.60;;
36355;SDS011;22384;54.302;18.596;2023-04-01T23:42:21;4.05;;;1.63;;
36355;SDS011;22384;54.302;18.596;2023-04-01T23:44:51;4.50;;;1.60;;
36355;SDS011;22384;54.302;18.596;2023-04-01T23:47:21;1.52;;;1.23;;
36355;SDS011;22384;54.302;18.596;2023-04-01T23:49:49;5.35;;;1.73;;
36355;SDS011;22384;54.302;18.596;2023-04-01T23:52:36;4.20;;;1.95;;
36355;SDS011;22384;54.302;18.596;2023-04-01T23:57:37;3.92;;;1.48;;
